createdAt,value
2022-08-22T00:00:41.169Z,383.6
2022-08-22T00:02:24.571Z,381.7
2022-08-22T00:04:07.970Z,382.8
2022-08-22T00:05:51.344Z,385.2
2022-08-22T00:07:34.749Z,385.8
2022-08-22T00:09:18.149Z,384.1
2022-08-22T00:12:44.606Z,385.7
2022-08-22T00:14:28.008Z,384.6
2022-08-22T00:16:11.405Z,386.8
2022-08-22T00:17:54.847Z,387
2022-08-22T00:19:38.201Z,386.3
2022-08-22T00:21:21.613Z,385.1
2022-08-22T00:23:05.005Z,383.2
2022-08-22T00:24:48.403Z,382.4
2022-08-22T00:28:14.924Z,381.2
2022-08-22T00:29:58.268Z,380.5
2022-08-22T00:31:41.654Z,381.7
2022-08-22T00:33:25.062Z,383.6
2022-08-22T00:35:08.442Z,385.4
2022-08-22T00:36:51.850Z,385.2
2022-08-22T00:38:35.242Z,383.3
2022-08-22T00:40:18.635Z,383
2022-08-22T00:43:45.117Z,385.2
2022-08-22T00:45:28.511Z,385.6
2022-08-22T00:47:11.915Z,384.6
2022-08-22T00:48:55.290Z,385.5
2022-08-22T00:50:38.705Z,386.4
2022-08-22T00:52:22.086Z,386.8
2022-08-22T00:54:05.501Z,388.4
2022-08-22T00:55:48.899Z,390.4
2022-08-22T00:57:32.577Z,391.2
2022-08-22T00:59:15.986Z,390.3
2022-08-22T01:00:59.370Z,389.7
2022-08-22T01:02:42.772Z,387.6
2022-08-22T01:04:26.170Z,387.8
2022-08-22T01:06:09.563Z,388.5
2022-08-22T01:07:52.983Z,387.6
2022-08-22T01:09:36.354Z,387.7
2022-08-22T01:11:20.054Z,387.9
2022-08-22T01:13:03.454Z,388.2
2022-08-22T01:14:46.862Z,391.1
2022-08-22T01:16:30.259Z,391.8
2022-08-22T01:18:13.642Z,391.3
2022-08-22T01:19:57.063Z,390.3
2022-08-22T01:21:40.437Z,390.4
2022-08-22T01:23:23.834Z,389.4
2022-08-22T01:26:50.317Z,389.6
2022-08-22T01:28:33.708Z,390.5
2022-08-22T01:30:17.117Z,388.7
2022-08-22T01:32:00.490Z,389
2022-08-22T01:33:43.897Z,387.6
2022-08-22T01:35:27.299Z,387.5
2022-08-22T01:37:10.677Z,387.7
2022-08-22T01:42:19.943Z,386.2
2022-08-22T01:44:03.332Z,385.3
2022-08-22T01:45:46.722Z,384.2
2022-08-22T01:47:30.126Z,383.2
2022-08-22T01:49:13.520Z,383.1
2022-08-22T01:50:56.907Z,383.3
2022-08-22T01:52:40.318Z,382.3
2022-08-22T01:54:23.712Z,382.8
2022-08-22T01:57:50.184Z,379.8
2022-08-22T01:59:33.574Z,380.3
2022-08-22T02:01:16.961Z,379.5
2022-08-22T02:03:00.366Z,377.8
2022-08-22T02:04:43.763Z,376.6
2022-08-22T02:06:27.167Z,376.6
2022-08-22T02:08:10.563Z,376.1
2022-08-22T02:09:53.951Z,377
2022-08-22T02:11:37.349Z,380.3
2022-08-22T02:13:21.050Z,380.6
2022-08-22T02:15:04.447Z,381.1
2022-08-22T02:16:47.847Z,382
2022-08-22T02:18:31.241Z,381.2
2022-08-22T02:21:58.039Z,388.2
2022-08-22T02:23:41.430Z,390.7
2022-08-22T02:25:24.824Z,392
2022-08-22T02:30:34.071Z,391.8
2022-08-22T02:32:17.451Z,391.3
2022-08-22T02:34:00.858Z,391.1
2022-08-22T02:35:44.252Z,390.6
2022-08-22T02:37:27.650Z,388.6
2022-08-22T02:39:11.041Z,388.3
2022-08-22T02:40:54.449Z,389.8
2022-08-22T02:42:37.847Z,391.3
2022-08-22T02:44:21.545Z,394
2022-08-22T02:46:04.929Z,395.7
2022-08-22T02:47:48.334Z,396.3
2022-08-22T02:49:31.739Z,398.6
2022-08-22T02:51:15.126Z,398.2
2022-08-22T02:52:58.528Z,399.3
2022-08-22T02:54:41.924Z,398.3
2022-08-22T02:56:25.323Z,397.3
2022-08-22T02:59:51.804Z,401.2
2022-08-22T03:01:35.195Z,399.7
2022-08-22T03:03:18.577Z,398
2022-08-22T03:05:01.977Z,395.8
2022-08-22T03:08:28.757Z,391.1
2022-08-22T03:10:12.155Z,389.7
2022-08-22T03:13:38.628Z,388
2022-08-22T03:15:22.059Z,388.2
2022-08-22T03:17:05.431Z,389.1
2022-08-22T03:18:48.825Z,391.5
2022-08-22T03:20:32.231Z,393.2
2022-08-22T03:22:15.611Z,391.3
2022-08-22T03:23:59.022Z,390
2022-08-22T03:25:42.417Z,389.7
2022-08-22T03:27:26.134Z,391.2
2022-08-22T03:29:09.511Z,392
2022-08-22T03:30:52.903Z,392.1
2022-08-22T03:32:36.294Z,396.6
2022-08-22T03:34:19.706Z,397.7
2022-08-22T03:36:03.094Z,396
2022-08-22T03:37:46.492Z,396.4
2022-08-22T03:39:29.887Z,394.8
2022-08-22T03:42:56.355Z,398.8
2022-08-22T03:44:39.769Z,400.1
2022-08-22T03:46:23.160Z,400.3
2022-08-22T03:48:06.539Z,403.6
2022-08-22T03:49:49.952Z,403.2
2022-08-22T03:51:33.348Z,402
2022-08-22T03:53:16.748Z,401.2
2022-08-22T03:55:00.143Z,400.8
2022-08-22T03:56:43.837Z,397.8
2022-08-22T03:58:27.238Z,399.1
2022-08-22T04:00:10.641Z,397.2
2022-08-22T04:01:54.038Z,400.7
2022-08-22T04:03:37.451Z,400.7
2022-08-22T04:05:20.833Z,398.1
2022-08-22T04:07:04.232Z,399.5
2022-08-22T04:08:47.620Z,399.3
2022-08-22T04:10:31.313Z,399.3
2022-08-22T04:12:14.728Z,403.6
2022-08-22T04:13:58.115Z,404.4
2022-08-22T04:15:41.511Z,405.7
2022-08-22T04:17:24.899Z,410.3
2022-08-22T04:19:08.307Z,408.8
2022-08-22T04:20:51.689Z,409.1
2022-08-22T04:22:35.103Z,410.2
2022-08-22T04:26:01.565Z,410.9
2022-08-22T04:27:44.961Z,407.3
2022-08-22T04:29:28.362Z,407
2022-08-22T04:31:11.750Z,407.5
2022-08-22T04:32:55.164Z,404.2
2022-08-22T04:34:38.549Z,400.3
2022-08-22T04:36:21.954Z,400.3
2022-08-22T04:38:05.352Z,398.6
2022-08-22T04:39:49.060Z,399.5
2022-08-22T04:41:32.445Z,401.3
2022-08-22T04:43:15.851Z,404.7
2022-08-22T04:44:59.240Z,407.2
2022-08-22T04:46:42.640Z,407.1
2022-08-22T04:48:26.026Z,406.4
2022-08-22T04:50:09.449Z,409.3
2022-08-22T04:55:18.671Z,406.9
2022-08-22T04:57:02.083Z,408
2022-08-22T04:58:45.459Z,409.1
2022-08-22T05:00:28.854Z,410.1
2022-08-22T05:02:12.281Z,409.5
2022-08-22T05:03:55.670Z,408.1
2022-08-22T05:05:39.050Z,409.7
2022-08-22T05:07:22.467Z,410.2
2022-08-22T05:10:49.551Z,410.4
2022-08-22T05:12:32.941Z,408.2
2022-08-22T05:14:16.357Z,409.7
2022-08-22T05:15:59.748Z,410.6
2022-08-22T05:17:43.128Z,408.7
2022-08-22T05:19:26.537Z,408.6
2022-08-22T05:21:09.937Z,408.8
2022-08-22T05:22:53.622Z,408.5
2022-08-22T05:24:37.037Z,410
2022-08-22T05:26:20.434Z,408
2022-08-22T05:28:03.829Z,405.3
2022-08-22T05:29:47.234Z,405.7
2022-08-22T05:31:30.637Z,405.4
2022-08-22T05:33:14.031Z,405.8
2022-08-22T05:34:57.415Z,405.3
2022-08-22T05:36:41.115Z,403.4
2022-08-22T05:38:24.515Z,403.2
2022-08-22T05:40:07.902Z,402.4
2022-08-22T05:41:51.311Z,403.5
2022-08-22T05:43:34.695Z,401.6
2022-08-22T05:45:18.103Z,402.3
2022-08-22T05:47:01.488Z,402.3
2022-08-22T05:52:10.742Z,400.2
2022-08-22T05:53:54.145Z,399.5
2022-08-22T05:55:37.531Z,399.7
2022-08-22T05:57:20.935Z,399.8
2022-08-22T05:59:04.324Z,401.6
2022-08-22T06:00:47.711Z,400.4
2022-08-22T06:02:31.117Z,401.1
2022-08-22T06:07:40.353Z,400
2022-08-22T06:09:23.751Z,398.5
2022-08-22T06:11:07.149Z,397.3
2022-08-22T06:12:50.545Z,396.4
2022-08-22T06:14:33.938Z,398.4
2022-08-22T06:16:17.336Z,399.3
2022-08-22T06:18:00.741Z,398.5
2022-08-22T06:21:27.224Z,405.6
2022-08-22T06:23:10.594Z,409.1
2022-08-22T06:24:53.991Z,413.4
2022-08-22T06:26:37.437Z,416.3
2022-08-22T06:28:20.788Z,419.1
2022-08-22T06:30:04.193Z,423.2
2022-08-22T06:31:47.580Z,425.2
2022-08-22T06:33:31.002Z,428.2
2022-08-22T06:36:57.457Z,436
2022-08-22T06:38:40.859Z,464.7
2022-08-22T06:40:24.243Z,482.2
2022-08-22T06:42:07.653Z,483
2022-08-22T06:43:51.035Z,484.5
2022-08-22T06:45:34.456Z,483.4
2022-08-22T06:47:17.827Z,475.4
2022-08-22T06:52:27.086Z,467.6
2022-08-22T06:54:10.467Z,464.4
2022-08-22T06:55:53.871Z,462.6
2022-08-22T06:57:37.256Z,459.5
2022-08-22T06:59:20.678Z,452.6
2022-08-22T07:01:04.058Z,447
2022-08-22T07:02:47.453Z,441.8
2022-08-22T07:04:30.863Z,440.3
2022-08-22T07:07:57.357Z,436.8
2022-08-22T07:09:40.719Z,436
2022-08-22T07:11:24.113Z,435.1
2022-08-22T07:13:07.523Z,436.6
2022-08-22T07:14:50.925Z,437.4
2022-08-22T07:16:34.294Z,440.7
2022-08-22T07:18:17.693Z,443.2
2022-08-22T07:23:26.938Z,446
2022-08-22T07:25:10.347Z,444.5
2022-08-22T07:26:53.732Z,449.3
2022-08-22T07:28:37.138Z,450.3
2022-08-22T07:30:20.552Z,450
2022-08-22T07:32:03.943Z,449.6
2022-08-22T07:33:47.328Z,447.5
2022-08-22T07:35:30.732Z,446.3
2022-08-22T07:38:57.217Z,435.9
2022-08-22T07:40:40.587Z,432.3
2022-08-22T07:42:24.004Z,431.1
2022-08-22T07:44:07.373Z,429.7
2022-08-22T07:45:50.782Z,426.5
2022-08-22T07:47:34.232Z,422.3
2022-08-22T07:49:17.574Z,419.1
2022-08-22T07:51:00.959Z,415.2
2022-08-22T07:54:27.441Z,409.9
2022-08-22T07:56:10.841Z,406.6
2022-08-22T07:57:54.241Z,403.8
2022-08-22T07:59:37.664Z,403.6
2022-08-22T08:01:21.025Z,402.2
2022-08-22T08:03:04.424Z,401.5
2022-08-22T08:04:47.811Z,401.7
2022-08-22T08:06:31.207Z,398.4
2022-08-22T08:09:57.686Z,397
2022-08-22T08:11:41.076Z,396.8
2022-08-22T08:13:24.475Z,394.6
2022-08-22T08:15:07.876Z,391.6
2022-08-22T08:16:51.262Z,388.8
2022-08-22T08:18:34.673Z,385.6
2022-08-22T08:20:18.060Z,384.6
2022-08-22T08:22:01.448Z,383.8
2022-08-22T08:25:27.935Z,397.8
2022-08-22T08:27:11.323Z,406.7
2022-08-22T08:28:54.723Z,405.1
2022-08-22T08:30:38.135Z,416.3
2022-08-22T08:32:21.537Z,425.5
2022-08-22T08:34:04.917Z,425.3
2022-08-22T08:35:48.319Z,423.6
2022-08-22T08:37:31.705Z,419.1
2022-08-22T08:40:58.186Z,415.7
2022-08-22T08:42:41.584Z,410.4
2022-08-22T08:44:24.972Z,406
2022-08-22T08:46:08.384Z,406.7
2022-08-22T08:47:51.779Z,408.7
2022-08-22T08:49:35.145Z,410.3
2022-08-22T08:51:18.555Z,410.6
2022-08-22T08:53:01.942Z,409.2
2022-08-22T08:56:28.464Z,407.4
2022-08-22T08:58:11.823Z,403.8
2022-08-22T08:59:55.231Z,404.4
2022-08-22T09:01:38.621Z,402.3
2022-08-22T09:03:22.018Z,409.5
2022-08-22T09:05:05.432Z,411.6
2022-08-22T09:06:48.811Z,411
2022-08-22T09:11:58.059Z,408.1
2022-08-22T09:13:41.440Z,409.1
2022-08-22T09:15:24.877Z,410.5
2022-08-22T09:17:08.251Z,410.7
2022-08-22T09:18:51.659Z,412.7
2022-08-22T09:20:35.024Z,412.2
2022-08-22T09:22:18.436Z,411.6
2022-08-22T09:24:01.942Z,409.4
2022-08-22T09:25:45.546Z,407.6
2022-08-22T09:27:28.955Z,405.5
2022-08-22T09:29:12.317Z,402.6
2022-08-22T09:30:55.745Z,399.5
2022-08-22T09:32:39.147Z,398.5
2022-08-22T09:34:22.509Z,400
2022-08-22T09:36:05.933Z,398.1
2022-08-22T09:37:49.340Z,394.3
2022-08-22T09:41:15.770Z,390
2022-08-22T09:42:59.200Z,391.2
2022-08-22T09:44:42.615Z,396.7
2022-08-22T09:46:25.965Z,396.3
2022-08-22T09:48:09.378Z,396.1
2022-08-22T09:49:52.754Z,393.3
2022-08-22T09:51:36.205Z,393.7
2022-08-22T09:53:19.551Z,396.3
2022-08-22T09:55:03.258Z,403.4
2022-08-22T09:56:46.669Z,408.7
2022-08-22T09:58:30.057Z,410.7
2022-08-22T10:00:13.491Z,410.7
2022-08-22T10:01:56.868Z,410
2022-08-22T10:03:40.244Z,411.7
2022-08-22T10:05:23.638Z,413.7
2022-08-22T10:07:07.044Z,414
2022-08-22T10:08:50.775Z,415
2022-08-22T10:10:34.162Z,414.1
2022-08-22T10:12:17.557Z,414
2022-08-22T10:14:00.937Z,415.1
2022-08-22T10:15:44.360Z,418.8
2022-08-22T10:17:27.758Z,418
2022-08-22T10:19:11.134Z,418.5
2022-08-22T10:22:37.600Z,420.4
2022-08-22T10:24:21.005Z,417.8
2022-08-22T10:26:04.394Z,417
2022-08-22T10:27:47.797Z,416.2
2022-08-22T10:29:31.216Z,416.3
2022-08-22T10:31:14.638Z,414.2
2022-08-22T10:32:57.982Z,412.5
2022-08-22T10:34:41.380Z,412.4
2022-08-22T10:38:07.862Z,411.5
2022-08-22T10:39:51.260Z,412.3
2022-08-22T10:41:34.683Z,416.1
2022-08-22T10:43:18.066Z,417
2022-08-22T10:45:01.476Z,417.4
2022-08-22T10:46:44.857Z,418.4
2022-08-22T10:48:28.265Z,418.5
2022-08-22T10:50:11.634Z,416.5
2022-08-22T10:51:55.402Z,417
2022-08-22T10:53:38.732Z,419.1
2022-08-22T10:55:22.196Z,420.8
2022-08-22T10:57:05.536Z,418
2022-08-22T10:58:48.980Z,420
2022-08-22T11:00:32.335Z,420.5
2022-08-22T11:02:15.725Z,421
2022-08-22T11:03:59.155Z,421.8
2022-08-22T11:07:25.580Z,428.6
2022-08-22T11:09:09.030Z,529.6
2022-08-22T11:10:52.386Z,527.8
2022-08-22T11:12:35.773Z,505.6
2022-08-22T11:14:19.199Z,496.5
2022-08-22T11:16:02.587Z,500.3
2022-08-22T11:17:45.995Z,510.8
2022-08-22T11:19:29.369Z,516.6
2022-08-22T11:21:13.084Z,521
2022-08-22T11:22:56.482Z,541.4
2022-08-22T11:24:39.870Z,561.6
2022-08-22T11:26:23.271Z,557.7
2022-08-22T11:28:06.697Z,561.1
2022-08-22T11:29:50.101Z,563.8
2022-08-22T11:31:33.468Z,562.8
2022-08-22T11:33:16.850Z,562.5
2022-08-22T11:35:00.564Z,562.4
2022-08-22T11:36:43.951Z,562.4
2022-08-22T11:38:27.361Z,560.2
2022-08-22T11:40:10.764Z,558.3
2022-08-22T11:41:54.152Z,561
2022-08-22T11:43:37.551Z,560.8
2022-08-22T11:45:20.960Z,557.5
2022-08-22T11:47:04.334Z,559.2
2022-08-22T11:48:48.048Z,558.5
2022-08-22T11:50:31.441Z,561.2
2022-08-22T11:52:14.823Z,564.6
2022-08-22T11:53:58.263Z,566.1
2022-08-22T11:55:41.614Z,575.5
2022-08-22T11:57:25.035Z,585.4
2022-08-22T11:59:08.407Z,592.6
2022-08-22T12:00:51.850Z,599.5
2022-08-22T12:04:18.291Z,609.6
2022-08-22T12:06:01.693Z,609.8
2022-08-22T12:07:45.110Z,608.4
2022-08-22T12:09:28.485Z,604.8
2022-08-22T12:11:11.895Z,602.6
2022-08-22T12:12:55.320Z,602.5
2022-08-22T12:14:38.661Z,602.3
2022-08-22T12:16:22.098Z,602.2
2022-08-22T12:19:48.541Z,602.3
2022-08-22T12:24:58.721Z,610.5
2022-08-22T12:28:25.536Z,613.5
2022-08-22T12:31:59.327Z,611.3
2022-08-22T12:33:36.024Z,608.7
2022-08-22T12:35:19.427Z,611.6
2022-08-22T12:37:02.872Z,611.4
2022-08-22T12:38:46.241Z,610.6
2022-08-22T12:40:29.612Z,608.6
2022-08-22T12:42:13.007Z,609.8
2022-08-22T12:43:56.401Z,607.6
2022-08-22T12:45:39.798Z,604
2022-08-22T12:49:06.274Z,597
2022-08-22T12:50:49.691Z,596
2022-08-22T12:52:33.171Z,594.3
2022-08-22T12:54:16.497Z,590.4
2022-08-22T12:55:59.888Z,586.1
2022-08-22T12:57:43.257Z,583.3
2022-08-22T12:59:26.676Z,583.7
2022-08-22T13:01:10.054Z,581.2
2022-08-22T13:02:53.743Z,578.3
2022-08-22T13:04:37.172Z,576
2022-08-22T13:06:20.542Z,576.7
2022-08-22T13:08:03.949Z,577.3
2022-08-22T13:09:47.328Z,575
2022-08-22T13:11:30.728Z,570.1
2022-08-22T13:13:14.162Z,566.7
2022-08-22T13:14:57.556Z,560
2022-08-22T13:18:24.009Z,540.3
2022-08-22T13:20:07.402Z,533
2022-08-22T13:21:50.823Z,524.7
2022-08-22T13:23:34.230Z,516.3
2022-08-22T13:25:17.577Z,508.4
2022-08-22T13:27:00.991Z,502.8
2022-08-22T13:28:44.461Z,501.6
2022-08-22T13:30:27.807Z,502.4
2022-08-22T13:33:54.241Z,509.7
2022-08-22T13:35:37.661Z,514.4
2022-08-22T13:37:21.039Z,520.1
2022-08-22T13:39:04.451Z,523.3
2022-08-22T13:40:47.837Z,528.7
2022-08-22T13:42:31.237Z,533.7
2022-08-22T13:44:14.671Z,538.5
2022-08-22T13:45:58.048Z,540.7
2022-08-22T13:49:24.489Z,547.3
2022-08-22T13:51:07.890Z,550.1
2022-08-22T13:52:51.321Z,552.1
2022-08-22T13:54:34.734Z,554.5
2022-08-22T13:56:18.114Z,554.2
2022-08-22T13:58:01.500Z,553.5
2022-08-22T13:59:44.876Z,555.1
2022-08-22T14:01:28.299Z,558
2022-08-22T14:03:11.981Z,561.9
2022-08-22T14:04:55.378Z,562.8
2022-08-22T14:06:38.786Z,564.3
2022-08-22T14:08:22.183Z,566.4
2022-08-22T14:10:05.561Z,570.1
2022-08-22T14:11:48.967Z,571.6
2022-08-22T14:13:32.352Z,572.5
2022-08-22T14:15:15.783Z,573.5
2022-08-22T14:18:42.213Z,572.2
2022-08-22T14:20:25.618Z,572.8
2022-08-22T14:22:09.029Z,573
2022-08-22T14:23:52.419Z,575.2
2022-08-22T14:25:35.849Z,580.2
2022-08-22T14:27:19.232Z,584.1
2022-08-22T14:29:02.613Z,589.6
2022-08-22T14:34:11.871Z,592.1
2022-08-22T14:35:55.259Z,592.3
2022-08-22T14:37:38.652Z,595.3
2022-08-22T14:39:22.035Z,594
2022-08-22T14:41:05.436Z,596.7
2022-08-22T14:42:48.836Z,600
2022-08-22T14:44:32.222Z,598.2
2022-08-22T14:49:41.466Z,593.8
2022-08-22T14:51:24.909Z,599.5
2022-08-22T14:53:08.278Z,603.6
2022-08-22T14:54:51.673Z,607.7
2022-08-22T14:56:35.059Z,613.6
2022-08-22T14:58:18.447Z,618.7
2022-08-22T15:00:01.859Z,625
2022-08-22T15:05:11.101Z,633.8
2022-08-22T15:06:54.504Z,635.1
2022-08-22T15:08:37.900Z,632.4
2022-08-22T15:10:21.267Z,631.7
2022-08-22T15:12:04.701Z,630.1
2022-08-22T15:13:48.091Z,630.5
2022-08-22T15:15:33.088Z,629.4
2022-08-22T15:20:40.720Z,628.7
2022-08-22T15:22:24.107Z,626.4
2022-08-22T15:24:07.506Z,625
2022-08-22T15:25:50.888Z,626.1
2022-08-22T15:27:34.309Z,624.3
2022-08-22T15:29:17.690Z,620.6
2022-08-22T15:31:01.083Z,619.1
2022-08-22T15:32:44.533Z,616.5
2022-08-22T15:34:28.178Z,616.5
2022-08-22T15:36:11.600Z,616.8
2022-08-22T15:37:54.985Z,616.8
2022-08-22T15:39:38.410Z,617.2
2022-08-22T15:41:21.792Z,617
2022-08-22T15:43:05.167Z,617.3
2022-08-22T15:44:48.581Z,617.2
2022-08-22T15:46:31.982Z,617.6
2022-08-22T15:48:15.690Z,619.2
2022-08-22T15:49:59.088Z,619.3
2022-08-22T15:51:42.464Z,620.1
2022-08-22T15:53:25.854Z,624.4
2022-08-22T15:55:09.261Z,624.4
2022-08-22T15:56:52.642Z,626.4
2022-08-22T15:58:36.084Z,633.3
2022-08-22T16:00:19.459Z,637.6
2022-08-22T16:03:45.931Z,661.5
2022-08-22T16:05:29.315Z,663
2022-08-22T16:07:12.712Z,661.2
2022-08-22T16:08:56.094Z,659.3
2022-08-22T16:10:39.505Z,655.4
2022-08-22T16:12:22.898Z,655
2022-08-22T16:14:06.295Z,655.6
2022-08-22T16:15:49.688Z,659.8
2022-08-22T16:19:16.161Z,666.3
2022-08-22T16:20:59.546Z,656.8
2022-08-22T16:22:42.941Z,650.6
2022-08-22T16:24:27.382Z,617.8
2022-08-22T16:26:09.752Z,560
2022-08-22T16:27:53.133Z,571.7
2022-08-22T16:29:36.543Z,570.6
2022-08-22T16:31:19.939Z,554.7
2022-08-22T16:34:46.413Z,535.3
2022-08-22T16:36:29.793Z,524
2022-08-22T16:38:13.205Z,525.1
2022-08-22T16:39:56.605Z,524.3
2022-08-22T16:41:39.988Z,511.7
2022-08-22T16:43:23.390Z,443.8
2022-08-22T16:45:06.785Z,431
2022-08-22T16:48:33.267Z,409.7
2022-08-22T16:50:16.654Z,416
2022-08-22T16:52:00.061Z,425.1
2022-08-22T16:53:43.454Z,429.3
2022-08-22T16:55:26.839Z,425.3
2022-08-22T16:57:10.232Z,420.3
2022-08-22T16:58:53.639Z,422.3
2022-08-22T17:04:02.863Z,427
2022-08-22T17:05:46.270Z,424.1
2022-08-22T17:07:29.678Z,424.6
2022-08-22T17:09:13.059Z,428.2
2022-08-22T17:10:56.454Z,427.5
2022-08-22T17:12:39.852Z,425.8
2022-08-22T17:14:23.251Z,428.6
2022-08-22T17:19:32.483Z,431.3
2022-08-22T17:21:15.895Z,425.8
2022-08-22T17:22:59.286Z,420
2022-08-22T17:24:42.679Z,413.7
2022-08-22T17:26:26.140Z,409.2
2022-08-22T17:28:09.479Z,405.6
2022-08-22T17:29:52.872Z,404.8
2022-08-22T17:35:02.114Z,404.8
2022-08-22T17:36:45.507Z,405.4
2022-08-22T17:38:28.893Z,407.3
2022-08-22T17:40:12.314Z,407.7
2022-08-22T17:41:55.706Z,403.2
2022-08-22T17:43:39.088Z,395.6
2022-08-22T17:45:22.479Z,383.2
2022-08-22T17:47:05.878Z,371.2
2022-08-22T17:50:32.367Z,360.7
2022-08-22T17:52:15.754Z,356.3
2022-08-22T17:53:59.146Z,362.1
2022-08-22T17:55:42.550Z,371
2022-08-22T17:57:25.953Z,375.5
2022-08-22T17:59:09.335Z,379.5
2022-08-22T18:00:52.726Z,384.1
2022-08-22T18:02:36.132Z,386.6
2022-08-22T18:04:19.837Z,389.6
2022-08-22T18:06:03.232Z,392.5
2022-08-22T18:07:46.634Z,397.8
2022-08-22T18:09:30.044Z,401.7
2022-08-22T18:11:13.426Z,408.4
2022-08-22T18:12:56.826Z,410.8
2022-08-22T18:14:40.225Z,418.5
2022-08-22T18:16:23.618Z,423.2
2022-08-22T18:19:50.096Z,427.1
2022-08-22T18:21:33.482Z,432.5
2022-08-22T18:23:16.889Z,438
2022-08-22T18:25:00.289Z,440.4
2022-08-22T18:26:43.684Z,443.8
2022-08-22T18:28:27.088Z,447.1
2022-08-22T18:30:10.465Z,448.5
2022-08-22T18:35:19.728Z,446.8
2022-08-22T18:37:03.116Z,444.4
2022-08-22T18:38:46.510Z,443.5
2022-08-22T18:40:29.901Z,442.7
2022-08-22T18:42:13.327Z,443.2
2022-08-22T18:43:56.705Z,442.5
2022-08-22T18:45:40.095Z,443.2
2022-08-22T18:47:23.498Z,445.5
2022-08-22T18:50:49.973Z,454.3
2022-08-22T18:52:33.368Z,457.4
2022-08-22T18:54:16.766Z,459.5
2022-08-22T18:56:00.160Z,462.7
2022-08-22T18:57:43.580Z,468.1
2022-08-22T18:59:26.953Z,473.6
2022-08-22T19:01:10.357Z,479.4
2022-08-22T19:02:53.748Z,479
2022-08-22T19:04:37.462Z,477.7
2022-08-22T19:06:20.851Z,475.5
2022-08-22T19:08:04.253Z,471.6
2022-08-22T19:09:47.644Z,469.1
2022-08-22T19:11:31.054Z,469.8
2022-08-22T19:13:14.451Z,464.2
2022-08-22T19:14:57.838Z,459.2
2022-08-22T19:16:41.246Z,454.7
2022-08-22T19:20:07.717Z,470
2022-08-22T19:23:34.492Z,468.5
2022-08-22T19:25:17.906Z,466.8
2022-08-22T19:27:01.300Z,469.3
2022-08-22T19:28:44.702Z,463.3
2022-08-22T19:30:28.083Z,460.4
2022-08-22T19:32:11.495Z,459.3
2022-08-22T19:33:55.190Z,459.2
2022-08-22T19:35:38.595Z,459
2022-08-22T19:37:21.985Z,459.2
2022-08-22T19:39:05.391Z,458.1
2022-08-22T19:40:48.785Z,456.8
2022-08-22T19:42:32.183Z,452.8
2022-08-22T19:44:15.583Z,449.4
2022-08-22T19:49:24.824Z,443.8
2022-08-22T19:51:08.206Z,442.5
2022-08-22T19:52:51.624Z,438.6
2022-08-22T19:54:35.003Z,434
2022-08-22T19:56:18.399Z,431.7
2022-08-22T19:58:01.794Z,428.4
2022-08-22T19:59:45.193Z,426.6
2022-08-22T20:03:11.671Z,427
2022-08-22T20:04:55.061Z,429.7
2022-08-22T20:06:38.491Z,428.3
2022-08-22T20:08:21.872Z,426.1
2022-08-22T20:10:05.254Z,426
2022-08-22T20:11:48.656Z,426.3
2022-08-22T20:13:32.049Z,423.7
2022-08-22T20:15:15.440Z,422.7
2022-08-22T20:16:59.142Z,422.8
2022-08-22T20:18:42.557Z,423.1
2022-08-22T20:20:25.958Z,423.5
2022-08-22T20:22:09.349Z,426.1
2022-08-22T20:23:52.746Z,425.5
2022-08-22T20:25:36.131Z,424
2022-08-22T20:27:19.522Z,425.8
2022-08-22T20:32:28.798Z,420.2
2022-08-22T20:34:12.178Z,415.7
2022-08-22T20:35:55.560Z,414.5
2022-08-22T20:37:38.971Z,410.4
2022-08-22T20:39:22.353Z,407.7
2022-08-22T20:41:05.769Z,406.5
2022-08-22T20:42:49.148Z,404.1
2022-08-22T20:47:58.392Z,405
2022-08-22T20:49:41.797Z,405.1
2022-08-22T20:51:25.178Z,404.2
2022-08-22T20:53:08.572Z,405.7
2022-08-22T20:54:51.975Z,410.1
2022-08-22T20:56:35.372Z,412.5
2022-08-22T20:58:18.754Z,413
2022-08-22T21:00:02.161Z,414
2022-08-22T21:01:45.863Z,413.7
2022-08-22T21:03:29.258Z,412
2022-08-22T21:05:12.672Z,409.3
2022-08-22T21:06:56.054Z,408.5
2022-08-22T21:08:39.462Z,408.4
2022-08-22T21:10:22.848Z,405
2022-08-22T21:12:06.244Z,403.1
2022-08-22T21:13:49.653Z,400.8
2022-08-22T21:18:58.892Z,393.7
2022-08-22T21:20:42.296Z,391.2
2022-08-22T21:22:25.667Z,388
2022-08-22T21:24:09.076Z,385.4
2022-08-22T21:25:52.466Z,385.8
2022-08-22T21:27:35.854Z,381.8
2022-08-22T21:29:19.262Z,383.1
2022-08-22T21:31:02.657Z,384.4
2022-08-22T21:34:29.131Z,381.3
2022-08-22T21:36:12.519Z,379.6
2022-08-22T21:37:55.911Z,378.3
2022-08-22T21:39:39.321Z,376.7
2022-08-22T21:41:22.717Z,375.6
2022-08-22T21:43:06.097Z,376.7
2022-08-22T21:44:49.501Z,379.5
2022-08-22T21:46:32.912Z,381.3
2022-08-22T21:49:59.379Z,385.5
2022-08-22T21:51:42.771Z,388.3
2022-08-22T21:53:26.156Z,389.5
2022-08-22T21:55:09.559Z,388.8
2022-08-22T21:56:52.963Z,389.2
2022-08-22T21:58:36.350Z,387.7
2022-08-22T22:00:19.743Z,384.2
2022-08-22T22:02:03.158Z,379.6
2022-08-22T22:05:29.608Z,375.6
2022-08-22T22:07:13.016Z,374.1
2022-08-22T22:08:56.413Z,371.4
2022-08-22T22:10:39.812Z,371
2022-08-22T22:12:23.216Z,368.5
2022-08-22T22:14:06.598Z,367.8
2022-08-22T22:15:50.005Z,368.2
2022-08-22T22:17:33.386Z,369.3
2022-08-22T22:19:16.796Z,369
2022-08-22T22:22:43.277Z,369.6
2022-08-22T22:24:26.658Z,367.5
2022-08-22T22:26:10.050Z,366.6
2022-08-22T22:27:53.448Z,367.2
2022-08-22T22:29:36.855Z,368.4
2022-08-22T22:31:20.260Z,366.3
2022-08-22T22:33:03.644Z,366
2022-08-22T22:34:47.040Z,365.8
2022-08-22T22:36:30.437Z,365.4
2022-08-22T22:39:56.908Z,365.4
2022-08-22T22:41:40.312Z,363.5
2022-08-22T22:43:23.709Z,363
2022-08-22T22:45:07.093Z,360.6
2022-08-22T22:46:50.483Z,360.4
2022-08-22T22:48:33.893Z,360.8
2022-08-22T22:50:17.283Z,360.8
2022-08-22T22:52:00.683Z,362.4
2022-08-22T22:55:27.168Z,364.6
2022-08-22T22:57:10.547Z,362.3
2022-08-22T22:58:53.939Z,363
2022-08-22T23:00:37.346Z,360.4
2022-08-22T23:02:20.730Z,359.6
2022-08-22T23:04:04.141Z,362.3
2022-08-22T23:05:47.528Z,365.5
2022-08-22T23:07:30.929Z,366.1
2022-08-22T23:10:57.390Z,363.7
2022-08-22T23:12:40.805Z,364
2022-08-22T23:14:24.200Z,361.3
2022-08-22T23:16:07.604Z,359.6
2022-08-22T23:17:50.982Z,360.3
2022-08-22T23:19:34.389Z,363.1
2022-08-22T23:21:17.777Z,363.7
2022-08-22T23:23:01.184Z,364.6
2022-08-22T23:28:10.420Z,362.2
2022-08-22T23:29:53.811Z,360.5
2022-08-22T23:31:37.206Z,360
2022-08-22T23:33:20.592Z,360.8
2022-08-22T23:35:04.009Z,362.1
2022-08-22T23:36:47.400Z,361.2
2022-08-22T23:38:30.796Z,361.7
2022-08-22T23:40:14.178Z,360.3
2022-08-22T23:43:40.651Z,358.4
2022-08-22T23:45:24.061Z,358.1
2022-08-22T23:47:07.449Z,359.1
2022-08-22T23:48:50.845Z,358.2
2022-08-22T23:50:34.255Z,359.7
2022-08-22T23:52:17.638Z,359.7
2022-08-22T23:54:01.046Z,359.6
2022-08-22T23:55:44.428Z,358.4
2022-08-22T23:59:11.431Z,358.6
